createdAt,value
2023-05-15T00:00:30.563Z,11.2
2023-05-15T00:02:36.881Z,11.2
2023-05-15T00:04:43.164Z,11.2
2023-05-15T00:08:55.673Z,11.2
2023-05-15T00:13:11.067Z,11.1
2023-05-15T00:17:23.631Z,11.1
2023-05-15T00:18:28.257Z,11.1
2023-05-15T00:20:34.426Z,11.1
2023-05-15T00:22:40.740Z,11.1
2023-05-15T00:24:47.036Z,11.1
2023-05-15T00:26:56.090Z,11
2023-05-15T00:29:02.395Z,11
2023-05-15T00:31:08.750Z,11
2023-05-15T00:33:14.958Z,11
2023-05-15T00:35:21.220Z,11
2023-05-15T00:37:27.501Z,10.9
2023-05-15T00:39:33.752Z,10.9
2023-05-15T00:41:42.865Z,10.8
2023-05-15T00:43:49.150Z,10.9
2023-05-15T00:45:55.398Z,10.9
2023-05-15T00:48:01.787Z,10.8
2023-05-15T00:50:07.983Z,10.8
2023-05-15T00:52:14.216Z,10.8
2023-05-15T00:54:20.588Z,10.8
2023-05-15T00:56:29.613Z,10.7
2023-05-15T00:58:35.856Z,10.8
2023-05-15T01:00:42.187Z,10.8
2023-05-15T01:02:48.513Z,10.8
2023-05-15T01:07:01.004Z,10.7
2023-05-15T01:09:07.266Z,10.7
2023-05-15T01:11:16.306Z,10.7
2023-05-15T01:13:22.607Z,10.6
2023-05-15T01:15:28.839Z,10.6
2023-05-15T01:16:33.442Z,10.6
2023-05-15T01:20:45.934Z,10.6
2023-05-15T01:22:52.197Z,10.6
2023-05-15T01:25:01.300Z,10.6
2023-05-15T01:27:07.543Z,10.6
2023-05-15T01:29:13.835Z,10.7
2023-05-15T01:31:20.122Z,10.7
2023-05-15T01:33:26.358Z,10.6
2023-05-15T01:35:32.639Z,10.6
2023-05-15T01:37:38.894Z,10.6
2023-05-15T01:39:47.976Z,10.6
2023-05-15T01:41:54.289Z,10.6
2023-05-15T01:44:00.536Z,10.5
2023-05-15T01:46:06.832Z,10.6
2023-05-15T01:48:13.090Z,10.5
2023-05-15T01:52:25.685Z,10.6
2023-05-15T01:54:34.721Z,10.5
2023-05-15T02:07:12.313Z,10.5
2023-05-15T02:13:33.959Z,10.5
2023-05-15T02:14:40.106Z,10.5
2023-05-15T02:16:46.373Z,10.5
2023-05-15T02:18:52.826Z,10.5
2023-05-15T02:20:58.886Z,10.6
2023-05-15T02:23:07.941Z,10.5
2023-05-15T02:25:14.236Z,10.5
2023-05-15T02:27:20.492Z,10.5
2023-05-15T02:29:26.765Z,10.4
2023-05-15T02:31:33.059Z,10.5
2023-05-15T02:33:39.328Z,10.4
2023-05-15T02:35:45.595Z,10.4
2023-05-15T02:37:54.699Z,10.4
2023-05-15T02:40:00.934Z,10.4
2023-05-15T02:42:07.245Z,10.3
2023-05-15T02:46:19.907Z,10.3
2023-05-15T02:48:26.067Z,10.3
2023-05-15T02:50:32.294Z,10.3
2023-05-15T02:52:41.376Z,10.3
2023-05-15T02:54:47.658Z,10.2
2023-05-15T02:56:53.942Z,10.2
2023-05-15T02:59:00.199Z,10.2
2023-05-15T03:01:06.496Z,10.2
2023-05-15T03:03:12.755Z,10.1
2023-05-15T03:07:28.117Z,10.1
2023-05-15T03:11:40.631Z,10.1
2023-05-15T03:14:04.704Z,10.1
2023-05-15T03:16:10.974Z,10.2
2023-05-15T03:18:18.704Z,10.1
2023-05-15T03:20:26.324Z,10.2
2023-05-15T03:22:32.616Z,10.2
2023-05-15T03:24:38.881Z,10.1
2023-05-15T03:26:45.134Z,10.1
2023-05-15T03:28:51.413Z,10
2023-05-15T03:30:57.675Z,10
2023-05-15T03:43:38.106Z,9.8
2023-05-15T03:45:44.431Z,9.8
2023-05-15T03:54:12.270Z,9.7
2023-05-15T03:58:24.816Z,9.7
2023-05-15T04:02:37.543Z,9.6
2023-05-15T04:10:03.454Z,9.5
2023-05-15T04:12:09.721Z,9.5
2023-05-15T04:14:15.967Z,9.5
2023-05-15T04:16:22.295Z,9.5
2023-05-15T04:18:31.364Z,9.6
2023-05-15T04:20:37.546Z,9.6
2023-05-15T04:22:43.850Z,9.7
2023-05-15T04:24:50.086Z,9.8
2023-05-15T04:26:56.403Z,9.8
2023-05-15T04:29:04.313Z,9.9
2023-05-15T04:31:08.895Z,10
2023-05-15T04:33:17.972Z,10.1
2023-05-15T04:39:36.763Z,10.2
2023-05-15T04:41:42.994Z,10.3
2023-05-15T04:43:49.272Z,10.3
2023-05-15T04:45:55.596Z,10.4
2023-05-15T04:48:04.635Z,10.4
2023-05-15T04:50:10.886Z,10.4
2023-05-15T05:00:42.236Z,10.5
2023-05-15T05:07:03.883Z,10.5
2023-05-15T05:08:08.424Z,10.6
2023-05-15T05:10:14.687Z,10.6
2023-05-15T05:29:14.027Z,10.8
2023-05-15T05:31:23.227Z,10.8
2023-05-15T05:33:29.404Z,10.9
2023-05-15T05:37:41.981Z,11
2023-05-15T05:39:48.244Z,11.1
2023-05-15T05:41:54.483Z,11.2
2023-05-15T05:46:09.897Z,11.2
2023-05-15T05:48:16.146Z,11.3
2023-05-15T05:52:28.698Z,11.5
2023-05-15T05:54:34.955Z,11.7
2023-05-15T05:56:41.254Z,11.8
2023-05-15T05:58:47.514Z,11.8
2023-05-15T06:00:56.617Z,11.9
2023-05-15T06:03:03.026Z,12
2023-05-15T06:05:09.180Z,12.2
2023-05-15T06:12:32.566Z,12.9
2023-05-15T06:21:00.493Z,13.2
2023-05-15T06:23:06.801Z,13.3
2023-05-15T06:25:13.098Z,13.1
2023-05-15T06:27:19.385Z,13.4
2023-05-15T06:35:47.376Z,13.6
2023-05-15T06:42:06.224Z,14
2023-05-15T06:46:21.651Z,14
2023-05-15T06:48:27.895Z,14.1
2023-05-15T06:52:40.451Z,13.7
2023-05-15T06:56:53.029Z,14.1
2023-05-15T07:09:47.398Z,19
2023-05-15T07:11:56.477Z,19
2023-05-15T07:14:02.810Z,19.1
2023-05-15T07:18:15.402Z,20.2
2023-05-15T07:26:54.375Z,17.9
2023-05-15T07:28:49.624Z,17.5
2023-05-15T07:30:55.902Z,16.5
2023-05-15T07:33:02.240Z,16.1
2023-05-15T07:43:36.460Z,18.1
2023-05-15T07:45:42.907Z,17.9
2023-05-15T07:56:16.998Z,20.7
2023-05-15T08:00:29.599Z,20.4
2023-05-15T08:05:46.659Z,21
2023-05-15T08:07:52.932Z,20.8
2023-05-15T08:12:08.376Z,20.9
2023-05-15T08:14:14.654Z,21.7
2023-05-15T08:16:20.956Z,21
2023-05-15T08:18:28.795Z,21.8
2023-05-15T08:29:02.967Z,22.3
2023-05-15T08:33:15.480Z,23.4
2023-05-15T08:35:21.729Z,22.5
2023-05-15T08:39:37.106Z,23
2023-05-15T08:41:43.373Z,22.5
2023-05-15T08:48:02.223Z,23.2
2023-05-15T08:52:14.669Z,20.6
2023-05-15T08:54:23.784Z,20.6
2023-05-15T08:59:40.825Z,21
2023-05-15T09:08:08.750Z,19.7
2023-05-15T09:10:14.959Z,19.9
2023-05-15T09:12:21.216Z,19.4
2023-05-15T09:14:27.481Z,19.7
2023-05-15T09:16:33.736Z,19.5
2023-05-15T09:18:39.998Z,19.1
2023-05-15T09:20:46.229Z,19.2
2023-05-15T09:27:07.842Z,19.2
2023-05-15T09:29:14.940Z,19.4
2023-05-15T09:33:26.577Z,19.8
2023-05-15T09:35:32.814Z,18.9
2023-05-15T09:37:41.910Z,18.6
2023-05-15T09:46:06.935Z,20.1
2023-05-15T09:48:13.297Z,19.8
2023-05-15T09:52:28.443Z,19.8
2023-05-15T09:54:34.658Z,19.6
2023-05-15T09:56:40.918Z,19.4
2023-05-15T09:57:45.441Z,19.2
2023-05-15T09:59:51.672Z,19.1
2023-05-15T10:01:57.932Z,18.8
2023-05-15T10:04:04.158Z,18.9
2023-05-15T10:06:13.298Z,19.8
2023-05-15T10:08:19.497Z,19.4
2023-05-15T10:12:31.999Z,19.1
2023-05-15T10:20:59.774Z,19.3
2023-05-15T10:29:24.728Z,19.8
2023-05-15T10:31:31.055Z,19.7
2023-05-15T10:35:46.329Z,19.9
2023-05-15T10:48:23.763Z,20.1
2023-05-15T10:50:32.849Z,20
2023-05-15T10:52:39.083Z,20
2023-05-15T10:59:16.776Z,19.9
2023-05-15T11:03:37.926Z,20.5
2023-05-15T11:05:38.308Z,20
2023-05-15T11:07:44.538Z,19.9
2023-05-15T11:09:50.798Z,20.1
2023-05-15T11:16:10.178Z,20.6
2023-05-15T11:18:18.550Z,20.6
2023-05-15T11:20:24.967Z,20.6
2023-05-15T11:22:30.986Z,20.4
2023-05-15T11:24:37.250Z,20.5
2023-05-15T11:26:43.478Z,20.4
2023-05-15T11:28:49.689Z,20.1
2023-05-15T11:30:55.982Z,19.8
2023-05-15T11:33:05.040Z,19.4
2023-05-15T11:35:11.249Z,19
2023-05-15T11:37:17.452Z,19.1
2023-05-15T11:47:51.519Z,18.5
2023-05-15T11:49:57.725Z,18.9
2023-05-15T11:52:03.955Z,19
2023-05-15T11:53:08.493Z,19
2023-05-15T11:55:14.734Z,18.7
2023-05-15T11:57:21.002Z,18.4
2023-05-15T12:01:36.326Z,18.2
2023-05-15T12:05:58.129Z,18.6
2023-05-15T12:10:01.291Z,18.3
2023-05-15T12:16:22.961Z,18.1
2023-05-15T12:18:29.195Z,18
2023-05-15T12:20:35.477Z,17.5
2023-05-15T12:22:41.645Z,17.5
2023-05-15T12:24:47.934Z,17.3
2023-05-15T12:26:56.629Z,17.3
2023-05-15T12:29:00.452Z,17.1
2023-05-15T12:31:09.524Z,17.3
2023-05-15T12:33:15.841Z,17.4
2023-05-15T12:35:22.052Z,17.1
2023-05-15T12:37:28.327Z,17.1
2023-05-15T12:39:34.589Z,17.3
2023-05-15T12:43:47.094Z,17.5
2023-05-15T12:45:56.330Z,17.4
2023-05-15T12:48:02.576Z,17.1
2023-05-15T12:50:08.845Z,17.1
2023-05-15T12:51:13.303Z,17.1
2023-05-15T12:53:19.551Z,17.1
2023-05-15T12:55:25.840Z,17.1
2023-05-15T12:59:41.190Z,17.5
2023-05-15T13:05:59.988Z,17.6
2023-05-15T13:08:06.256Z,17.5
2023-05-15T13:10:12.552Z,17.7
2023-05-15T13:12:18.800Z,17.4
2023-05-15T13:14:27.908Z,17.4
2023-05-15T13:16:34.268Z,17.4
2023-05-15T13:18:40.431Z,17.1
2023-05-15T13:20:46.688Z,17
2023-05-15T13:22:52.953Z,17.2
2023-05-15T13:24:59.206Z,17
2023-05-15T13:27:05.489Z,17
2023-05-15T13:31:20.904Z,17
2023-05-15T13:33:27.119Z,17.1
2023-05-15T13:35:33.396Z,17.1
2023-05-15T13:44:01.304Z,17.1
2023-05-15T13:46:07.580Z,17
2023-05-15T13:48:13.937Z,17
2023-05-15T13:53:30.962Z,16.9
2023-05-15T13:55:37.233Z,16.9
2023-05-15T13:57:46.342Z,16.5
2023-05-15T13:59:52.602Z,16.5
2023-05-15T14:01:58.841Z,16.4
2023-05-15T14:04:05.178Z,16.6
2023-05-15T14:08:17.681Z,16.5
2023-05-15T14:14:39.359Z,16.6
2023-05-15T14:16:45.676Z,17
2023-05-15T14:18:52.008Z,16.7
2023-05-15T14:25:12.257Z,17.5
2023-05-15T14:31:33.958Z,18.1
2023-05-15T14:33:40.203Z,18.5
2023-05-15T14:35:46.455Z,17.7
2023-05-15T14:37:52.717Z,17.8
2023-05-15T14:39:59.038Z,17.8
2023-05-15T14:42:08.129Z,17.8
2023-05-15T14:44:14.379Z,17.9
2023-05-15T14:46:20.723Z,17.9
2023-05-15T14:57:13.668Z,17.5
2023-05-15T15:03:34.202Z,17
2023-05-15T15:14:06.615Z,17.2
2023-05-15T15:18:19.205Z,17.6
2023-05-15T15:22:31.684Z,17.4
2023-05-15T15:24:40.794Z,17.1
2023-05-15T15:26:47.048Z,17.1
2023-05-15T15:28:53.345Z,16.8
2023-05-15T15:30:59.588Z,16.5
2023-05-15T15:33:05.949Z,16.3
2023-05-15T15:35:12.128Z,16.1
2023-05-15T15:39:27.520Z,16
2023-05-15T15:43:40.043Z,16
2023-05-15T15:44:44.596Z,15.8
2023-05-15T15:46:50.860Z,15.7
2023-05-15T16:01:37.757Z,15.5
2023-05-15T16:03:44.005Z,15.3
2023-05-15T16:05:50.248Z,15
2023-05-15T16:07:59.374Z,15
2023-05-15T16:10:12.370Z,14.9
2023-05-15T16:12:11.931Z,14.9
2023-05-15T16:14:18.231Z,14.8
2023-05-15T16:16:24.625Z,14.8
2023-05-15T16:22:46.204Z,14.7
2023-05-15T16:24:52.503Z,14.6
2023-05-15T16:26:58.810Z,14.6
2023-05-15T16:29:05.089Z,14.7
2023-05-15T16:31:11.386Z,14.7
2023-05-15T16:33:17.903Z,14.9
2023-05-15T16:35:23.933Z,15
2023-05-15T16:37:33.083Z,14.7
2023-05-15T16:39:39.335Z,14.6
2023-05-15T16:41:45.630Z,14.6
2023-05-15T16:42:50.216Z,14.4
2023-05-15T16:44:56.492Z,14.5
2023-05-15T16:47:02.790Z,14.4
2023-05-15T16:49:09.265Z,14.5
2023-05-15T16:51:18.246Z,14.5
2023-05-15T16:53:24.582Z,14.4
2023-05-15T16:55:30.785Z,14.4
2023-05-15T16:57:37.068Z,14.5
2023-05-15T16:59:43.354Z,14.4
2023-05-15T17:01:49.669Z,14.4
2023-05-15T17:03:56.013Z,14.5
2023-05-15T17:06:05.069Z,14.5
2023-05-15T17:08:11.378Z,14.5
2023-05-15T17:10:17.660Z,14.6
2023-05-15T17:12:23.935Z,14.4
2023-05-15T17:22:58.236Z,14.2
2023-05-15T17:25:04.532Z,14.1
2023-05-15T17:27:10.832Z,14.2
2023-05-15T17:29:17.100Z,14.3
2023-05-15T17:31:23.423Z,15.4
2023-05-15T17:33:29.673Z,15.3
2023-05-15T17:35:38.792Z,14.7
2023-05-15T17:37:45.104Z,14.6
2023-05-15T17:49:23.949Z,14.5
2023-05-15T17:51:30.260Z,14.3
2023-05-15T17:55:42.817Z,14
2023-05-15T17:57:50.292Z,14
2023-05-15T18:02:01.752Z,13.8
2023-05-15T18:04:10.892Z,13.8
2023-05-15T18:06:17.097Z,13.7
2023-05-15T18:08:23.366Z,13.7
2023-05-15T18:10:29.680Z,13.8
2023-05-15T18:16:48.635Z,13.8
2023-05-15T18:18:57.692Z,13.7
2023-05-15T18:21:03.990Z,13.7
2023-05-15T18:27:22.836Z,13.4
2023-05-15T18:29:29.110Z,13.4
2023-05-15T18:35:50.806Z,13
2023-05-15T18:37:57.129Z,12.9
2023-05-15T18:50:57.294Z,12.8
2023-05-15T18:53:03.605Z,12.7
2023-05-15T18:55:09.873Z,12.8
2023-05-15T19:03:37.911Z,12.7
2023-05-15T19:12:02.990Z,12.7
2023-05-15T19:14:09.312Z,12.6
2023-05-15T19:24:43.548Z,12.4
2023-05-15T19:26:49.856Z,12.2
2023-05-15T19:28:56.135Z,12
2023-05-15T19:33:11.512Z,11.8
2023-05-15T19:38:28.593Z,11.8
2023-05-15T19:40:34.915Z,11.8
2023-05-15T19:44:50.253Z,11.7
2023-05-15T19:46:56.589Z,11.8
2023-05-15T19:49:02.852Z,11.7
2023-05-15T19:55:21.688Z,11.7
2023-05-15T19:57:27.988Z,11.5
2023-05-15T19:59:37.083Z,11.4
2023-05-15T20:01:43.377Z,11.4
2023-05-15T20:03:49.759Z,11.3
2023-05-15T20:05:55.922Z,11.3
2023-05-15T20:10:08.492Z,11.2
2023-05-15T20:12:14.767Z,11
2023-05-15T20:16:30.176Z,11
2023-05-15T20:18:36.498Z,11
2023-05-15T20:20:42.721Z,11
2023-05-15T20:24:55.283Z,10.9
2023-05-15T20:27:01.563Z,10.8
2023-05-15T20:29:12.213Z,10.7
2023-05-15T20:31:18.525Z,10.7
2023-05-15T20:33:24.855Z,10.7
2023-05-15T20:34:29.336Z,10.7
2023-05-15T20:38:41.904Z,10.6
2023-05-15T20:42:57.234Z,10.2
2023-05-15T20:45:03.550Z,10.2
2023-05-15T20:47:09.790Z,10
2023-05-15T20:49:16.097Z,9.9
2023-05-15T20:53:28.605Z,9.8
2023-05-15T20:55:34.891Z,9.9
2023-05-15T20:57:43.983Z,9.9
2023-05-15T21:10:21.613Z,9.9
2023-05-15T21:16:43.239Z,9.9
2023-05-15T21:18:49.507Z,9.8
2023-05-15T21:20:55.769Z,9.8
2023-05-15T21:23:02.027Z,9.8
2023-05-15T21:25:08.280Z,9.8
2023-05-15T21:27:17.346Z,9.8
2023-05-15T21:29:23.619Z,9.8
2023-05-15T21:31:29.978Z,9.8
2023-05-15T21:32:34.466Z,9.8
2023-05-15T21:34:40.706Z,9.8
2023-05-15T21:38:53.255Z,9.8
2023-05-15T21:41:02.323Z,9.8
2023-05-15T21:51:33.624Z,9.7
2023-05-15T21:53:39.884Z,9.7
2023-05-15T21:55:48.946Z,9.7
2023-05-15T21:57:55.196Z,9.7
2023-05-15T22:00:01.459Z,9.7
2023-05-15T22:08:26.507Z,9.6
2023-05-15T22:10:35.559Z,9.6
2023-05-15T22:14:58.294Z,9.6
2023-05-15T22:16:54.386Z,9.6
2023-05-15T22:25:22.208Z,9.5
2023-05-15T22:27:28.440Z,9.5
2023-05-15T22:29:34.671Z,9.4
2023-05-15T22:34:06.746Z,9.4
2023-05-15T22:38:22.105Z,9.3
2023-05-15T22:40:28.596Z,9.3
2023-05-15T22:57:21.188Z,9.1
2023-05-15T22:59:27.450Z,9.1
2023-05-15T23:01:33.804Z,9.1
2023-05-15T23:18:26.512Z,9
2023-05-15T23:27:58.856Z,9
2023-05-15T23:30:05.092Z,9
2023-05-15T23:32:11.372Z,9
2023-05-15T23:34:17.606Z,9
2023-05-15T23:36:26.675Z,8.9
2023-05-15T23:38:32.931Z,8.9
2023-05-15T23:40:39.190Z,8.9
2023-05-15T23:53:19.599Z,8.8
2023-05-15T23:59:38.338Z,8.7
